Time;durP1;ratioP1;P1;durP2;ratioP2;P2;SDS_P1;SDS_P2;PMS_P1;PMS_P2;Temp;Humidity;BMP_temperature;BMP_pressure;BME280_temperature;BME280_humidity;BME280_pressure;Samples;Min_cycle;Max_cycle;Signal;HPM_P1;HPM_P2
2021/10/12 00:00:31;;;;;;;31.55;15.85;;;;;;;11.46;83.47;98557.47;4990421;28;20038;-57
2021/10/12 00:02:56;;;;;;;30.38;14.77;;;;;;;11.26;84.07;98551.16;4990895;28;20121;-57
2021/10/12 00:05:22;;;;;;;32.38;15.27;;;;;;;11.59;84.81;98553.50;4986058;28;20125;-57
2021/10/12 00:07:47;;;;;;;31.42;16.05;;;;;;;11.32;83.62;98537.91;4990851;28;20022;-57
2021/10/12 00:10:13;;;;;;;29.88;14.48;;;;;;;11.34;85.39;98546.53;4989252;28;20069;-59
2021/10/12 00:12:39;;;;;;;26.38;14.65;;;;;;;11.37;85.02;98553.41;4988756;28;20117;-59
2021/10/12 00:15:07;;;;;;;28.92;15.70;;;;;;;11.30;84.51;98550.19;4986784;28;20022;-59
2021/10/12 00:17:32;;;;;;;26.92;14.43;;;;;;;11.60;83.35;98552.59;4989490;28;20661;-57
2021/10/12 00:19:58;;;;;;;29.08;15.27;;;;;;;11.41;83.82;98554.16;4988755;28;20038;-58
2021/10/12 00:22:23;;;;;;;30.65;15.10;;;;;;;11.10;84.95;98552.59;4987022;28;20044;-57
2021/10/12 00:24:48;;;;;;;25.92;13.95;;;;;;;11.44;84.84;98554.91;4989486;28;20037;-59
2021/10/12 00:27:14;;;;;;;29.52;12.98;;;;;;;11.62;84.72;98550.78;4987768;28;20046;-59
2021/10/12 00:29:39;;;;;;;30.33;14.30;;;;;;;11.46;84.71;98550.47;4989364;28;20037;-57
2021/10/12 00:32:05;;;;;;;30.90;14.23;;;;;;;11.46;83.58;98545.25;4986536;28;20573;-58
2021/10/12 00:34:33;;;;;;;28.35;13.82;;;;;;;11.38;84.71;98544.69;4989065;28;20031;-57
2021/10/12 00:36:58;;;;;;;25.15;12.82;;;;;;;11.23;85.67;98543.47;4990855;28;20037;-58
2021/10/12 00:39:24;;;;;;;30.25;13.35;;;;;;;11.23;84.14;98533.03;4988884;28;20034;-57
2021/10/12 00:41:49;;;;;;;29.98;14.02;;;;;;;11.33;84.48;98529.16;4986163;28;20038;-58
2021/10/12 00:44:14;;;;;;;23.02;12.73;;;;;;;11.21;85.77;98520.91;4987797;28;20383;-58
2021/10/12 00:46:40;;;;;;;26.25;13.32;;;;;;;11.48;84.89;98526.91;4987973;28;20069;-58
2021/10/12 00:49:05;;;;;;;26.77;13.70;;;;;;;11.11;84.61;98538.66;4988288;28;20104;-57
2021/10/12 00:51:31;;;;;;;25.20;13.93;;;;;;;11.48;82.12;98522.53;4987376;28;20725;-58
2021/10/12 00:53:56;;;;;;;30.15;14.35;;;;;;;11.53;82.42;98525.84;4989619;28;20403;-59
2021/10/12 00:56:22;;;;;;;29.48;13.93;;;;;;;11.17;84.55;98517.56;4988871;28;20185;-57
2021/10/12 00:58:48;;;;;;;26.55;12.63;;;;;;;11.50;83.71;98519.88;4989046;28;20399;-59
2021/10/12 01:01:13;;;;;;;26.23;13.48;;;;;;;11.16;84.26;98508.03;4987325;28;20440;-58
2021/10/12 01:03:39;;;;;;;25.70;13.50;;;;;;;11.31;82.65;98499.63;4986751;28;20033;-58
2021/10/12 01:06:05;;;;;;;27.20;13.80;;;;;;;11.52;82.34;98504.97;4986938;28;20049;-59
2021/10/12 01:08:31;;;;;;;32.28;13.88;;;;;;;11.11;84.28;98508.19;4989084;28;20577;-58
2021/10/12 01:10:57;;;;;;;23.27;12.13;;;;;;;11.54;83.73;98509.25;4988028;28;20054;-58
2021/10/12 01:13:23;;;;;;;25.98;13.30;;;;;;;11.50;82.74;98509.41;4988441;28;20607;-57
2021/10/12 01:15:50;;;;;;;28.77;13.73;;;;;;;11.28;83.17;98499.75;4987867;28;20126;-59
2021/10/12 01:18:15;;;;;;;25.27;13.43;;;;;;;11.13;83.96;98497.69;4988568;28;20092;-58
2021/10/12 01:20:42;;;;;;;26.38;12.65;;;;;;;11.40;83.55;98492.41;4987200;28;20370;-57
2021/10/12 01:23:08;;;;;;;28.77;13.52;;;;;;;11.22;83.56;98488.69;4988054;28;20072;-58
2021/10/12 01:25:33;;;;;;;26.70;13.40;;;;;;;11.24;84.82;98486.88;4987099;28;20046;-59
2021/10/12 01:27:59;;;;;;;26.17;12.88;;;;;;;11.32;83.40;98485.69;4989960;28;20616;-59
2021/10/12 01:30:24;;;;;;;26.00;13.13;;;;;;;11.18;83.82;98482.72;4987067;28;20030;-59
2021/10/12 01:32:50;;;;;;;29.40;14.05;;;;;;;11.34;83.48;98483.00;4988945;28;20037;-57
2021/10/12 01:35:16;;;;;;;29.13;13.55;;;;;;;11.24;83.71;98486.88;4985127;28;20499;-58
2021/10/12 01:37:42;;;;;;;25.35;12.32;;;;;;;11.52;83.77;98476.25;4986150;28;20048;-58
2021/10/12 01:40:09;;;;;;;27.58;13.02;;;;;;;11.37;85.35;98478.50;4986290;28;20096;-58
2021/10/12 01:42:35;;;;;;;24.20;13.40;;;;;;;11.33;85.14;98470.84;4988992;28;20056;-58
2021/10/12 01:45:04;;;;;;;27.27;14.52;;;;;;;11.22;83.76;98470.41;4986699;28;20040;-58
2021/10/12 01:47:29;;;;;;;27.42;12.88;;;;;;;11.14;84.72;98483.75;4986446;28;20046;-58
2021/10/12 01:49:55;;;;;;;30.77;14.50;;;;;;;11.28;83.58;98472.78;4986142;28;20435;-59
2021/10/12 01:52:20;;;;;;;27.02;13.77;;;;;;;11.48;83.17;98469.44;4970723;28;20141;-59
2021/10/12 01:54:52;;;;;;;33.92;14.45;;;;;;;11.19;84.64;98468.72;4988580;28;20318;-59
2021/10/12 01:57:18;;;;;;;29.67;14.48;;;;;;;11.36;84.14;98461.16;4986522;28;20123;-59
2021/10/12 01:59:44;;;;;;;27.35;14.65;;;;;;;11.09;86.32;98456.94;4987149;28;20492;-57
2021/10/12 02:02:09;;;;;;;30.00;14.73;;;;;;;11.24;85.67;98461.59;4986316;28;20031;-58
2021/10/12 02:04:35;;;;;;;31.35;15.70;;;;;;;11.00;85.95;98458.94;4989148;28;20491;-57
2021/10/12 02:07:00;;;;;;;31.30;15.15;;;;;;;10.95;88.13;98454.81;4963980;28;20034;-57
2021/10/12 02:09:26;;;;;;;29.60;14.75;;;;;;;10.92;88.35;98454.94;4985083;28;20060;-59
2021/10/12 02:11:52;;;;;;;35.50;14.98;;;;;;;11.07;88.90;98446.53;4985814;28;20280;-59
2021/10/12 02:14:18;;;;;;;28.02;13.52;;;;;;;11.20;89.89;98436.50;4984891;28;20033;-58
2021/10/12 02:16:43;;;;;;;29.02;14.57;;;;;;;10.88;88.81;98427.22;4984901;28;20049;-59
2021/10/12 02:19:08;;;;;;;32.78;16.30;;;;;;;10.81;88.95;98437.03;4986652;28;20037;-59
2021/10/12 02:21:34;;;;;;;27.20;13.63;;;;;;;11.20;89.17;98428.69;4989022;28;20034;-59
2021/10/12 02:24:00;;;;;;;31.33;15.55;;;;;;;11.07;87.21;98427.44;4986466;28;20105;-58
2021/10/12 02:26:25;;;;;;;29.48;14.07;;;;;;;10.87;90.00;98428.97;4966139;28;20050;-57
2021/10/12 02:28:51;;;;;;;30.52;14.85;;;;;;;10.74;92.07;98423.34;4985632;28;20030;-60
2021/10/12 02:31:17;;;;;;;31.98;16.08;;;;;;;10.86;89.06;98424.66;4984821;28;20081;-57
2021/10/12 02:33:42;;;;;;;32.10;15.07;;;;;;;10.95;91.32;98423.47;4985435;28;20026;-56
2021/10/12 02:36:08;;;;;;;34.92;15.85;;;;;;;10.85;91.53;98420.34;4986907;28;20039;-57
2021/10/12 02:38:33;;;;;;;37.38;15.43;;;;;;;10.79;90.36;98423.19;4988777;28;20037;-57
2021/10/12 02:40:59;;;;;;;35.17;16.45;;;;;;;10.69;90.08;98419.19;4987568;28;20046;-58
2021/10/12 02:43:24;;;;;;;34.42;15.15;;;;;;;10.88;90.77;98420.25;4985765;28;20033;-57
2021/10/12 02:45:50;;;;;;;32.65;15.40;;;;;;;10.83;89.30;98410.88;4986953;28;20043;-58
2021/10/12 02:48:16;;;;;;;37.30;15.25;;;;;;;10.69;91.38;98411.34;4987881;28;20030;-57
2021/10/12 02:50:43;;;;;;;30.88;14.35;;;;;;;11.11;91.38;98411.56;4988019;28;20116;-58
2021/10/12 02:53:10;;;;;;;40.45;16.60;;;;;;;11.00;90.31;98400.69;4988240;28;20690;-58
2021/10/12 02:55:35;;;;;;;29.92;14.32;;;;;;;11.13;91.16;98401.09;4986240;28;20061;-57
2021/10/12 02:58:00;;;;;;;33.42;16.92;;;;;;;10.65;91.01;98399.34;4988484;28;20392;-57
2021/10/12 03:00:26;;;;;;;31.95;15.63;;;;;;;10.94;90.16;98391.31;4987086;28;20050;-57
2021/10/12 03:02:54;;;;;;;29.65;14.75;;;;;;;11.05;91.53;98387.47;4987327;28;20074;-58
2021/10/12 03:05:19;;;;;;;31.98;16.13;;;;;;;10.80;90.49;98383.97;4986578;28;20106;-59
2021/10/12 03:07:47;;;;;;;29.73;16.00;;;;;;;10.83;91.26;98380.41;4985592;28;20414;-57
2021/10/12 03:10:13;;;;;;;32.15;15.20;;;;;;;11.08;90.42;98376.91;4985611;28;20026;-56
2021/10/12 03:12:38;;;;;;;34.35;16.20;;;;;;;10.99;89.92;98378.94;4986801;28;20029;-56
2021/10/12 03:15:05;;;;;;;33.35;16.05;;;;;;;10.94;90.97;98374.81;4989751;28;20026;-58
2021/10/12 03:17:31;;;;;;;35.10;15.57;;;;;;;10.93;91.02;98376.53;4985841;28;20034;-56
2021/10/12 03:19:56;;;;;;;31.52;14.48;;;;;;;10.71;91.89;98378.25;4988177;28;20462;-56
2021/10/12 03:22:22;;;;;;;31.23;15.25;;;;;;;10.92;91.72;98377.47;4985285;28;20125;-57
2021/10/12 03:24:47;;;;;;;32.05;15.93;;;;;;;10.94;88.54;98367.81;4987121;28;20120;-56
2021/10/12 03:27:16;;;;;;;34.30;16.33;;;;;;;10.95;89.71;98372.16;4987333;28;20034;-56
2021/10/12 03:29:44;;;;;;;30.80;15.60;;;;;;;10.96;90.73;98373.84;4985384;28;20033;-56
2021/10/12 03:32:09;;;;;;;37.97;16.40;;;;;;;10.92;88.94;98372.25;4984155;28;20129;-57
2021/10/12 03:34:35;;;;;;;37.65;15.23;;;;;;;10.64;91.90;98356.72;4987904;28;20080;-58
2021/10/12 03:37:01;;;;;;;36.03;16.88;;;;;;;10.80;91.35;98362.25;4983759;28;20041;-58
2021/10/12 03:39:28;;;;;;;40.28;17.17;;;;;;;10.72;91.17;98361.69;4989695;28;20034;-59
2021/10/12 03:41:54;;;;;;;32.13;15.57;;;;;;;10.84;92.05;98358.63;4988691;28;20054;-57
2021/10/12 03:44:21;;;;;;;36.42;15.43;;;;;;;10.79;92.01;98357.97;4989686;28;20137;-57
2021/10/12 03:46:46;;;;;;;32.35;15.25;;;;;;;10.85;91.19;98355.13;4988974;28;20073;-57
2021/10/12 03:49:15;;;;;;;30.25;14.25;;;;;;;11.05;90.57;98358.75;4990682;28;20049;-57
2021/10/12 03:51:43;;;;;;;37.58;17.45;;;;;;;11.03;89.11;98353.59;4989808;28;20042;-58
2021/10/12 03:54:11;;;;;;;43.25;18.02;;;;;;;10.83;90.59;98359.53;4990763;28;20125;-56
2021/10/12 03:56:40;;;;;;;34.90;17.05;;;;;;;10.88;90.29;98355.00;4988826;28;20042;-61
2021/10/12 03:59:05;;;;;;;30.70;15.70;;;;;;;10.92;91.12;98351.38;4988376;28;20779;-57
2021/10/12 04:01:31;;;;;;;33.65;16.08;;;;;;;10.99;89.23;98350.25;4986708;28;20722;-57
2021/10/12 04:03:57;;;;;;;34.08;16.45;;;;;;;10.91;90.62;98347.06;4990406;28;20510;-57
2021/10/12 04:06:22;;;;;;;33.33;16.42;;;;;;;11.02;89.72;98346.66;4987759;28;20049;-58
2021/10/12 04:08:47;;;;;;;33.78;15.95;;;;;;;11.21;88.92;98341.59;4988708;28;20026;-56
2021/10/12 04:11:13;;;;;;;33.80;16.65;;;;;;;11.05;89.43;98335.28;4992264;28;20121;-56
2021/10/12 04:13:38;;;;;;;38.83;16.92;;;;;;;11.09;87.60;98334.25;4990769;28;20096;-56
2021/10/12 04:16:04;;;;;;;34.20;16.23;;;;;;;11.24;89.22;98333.63;4988052;28;20038;-56
2021/10/12 04:18:29;;;;;;;39.38;16.90;;;;;;;10.81;90.16;98332.66;4987666;28;20564;-57
2021/10/12 04:20:55;;;;;;;41.90;17.48;;;;;;;11.07;89.60;98328.22;4986686;28;20046;-57
2021/10/12 04:23:20;;;;;;;30.83;14.07;;;;;;;11.02;90.85;98325.78;4990977;28;20034;-57
2021/10/12 04:25:47;;;;;;;37.72;17.50;;;;;;;10.73;90.18;98326.84;4989430;28;20050;-56
2021/10/12 04:28:13;;;;;;;34.97;16.92;;;;;;;11.23;89.09;98324.13;4992850;28;20117;-57
2021/10/12 04:30:45;;;;;;;24.55;11.65;;;;;;;11.57;88.69;98323.63;4991443;28;20169;-58
2021/10/12 04:33:14;;;;;;;38.42;17.20;;;;;;;11.21;90.19;98325.91;4986692;28;20467;-58
2021/10/12 04:35:40;;;;;;;37.90;17.20;;;;;;;11.54;86.57;98328.13;4987906;28;20524;-57
2021/10/12 04:38:05;;;;;;;30.80;14.18;;;;;;;11.55;86.58;98324.63;4988803;28;20061;-57
2021/10/12 04:40:31;;;;;;;40.92;16.98;;;;;;;11.08;87.39;98324.69;4990694;28;20627;-56
2021/10/12 04:42:58;;;;;;;37.90;16.45;;;;;;;10.98;89.75;98319.81;4989640;28;20687;-56
2021/10/12 04:45:26;;;;;;;35.90;16.63;;;;;;;11.19;89.60;98317.28;4988712;28;20049;-56
2021/10/12 04:47:52;;;;;;;38.38;16.65;;;;;;;11.12;89.08;98321.03;4986984;28;20468;-56
2021/10/12 04:50:17;;;;;;;33.03;15.55;;;;;;;10.95;91.06;98319.94;4987562;28;20037;-58
2021/10/12 04:52:43;;;;;;;32.75;16.10;;;;;;;10.92;89.78;98325.28;4989369;28;20444;-56
2021/10/12 04:55:09;;;;;;;35.40;16.58;;;;;;;11.05;88.38;98314.38;4985815;28;20023;-57
2021/10/12 04:57:34;;;;;;;30.70;15.75;;;;;;;11.31;87.35;98319.44;4989846;28;20047;-57
2021/10/12 04:59:59;;;;;;;36.85;16.92;;;;;;;10.91;89.12;98313.13;4990502;28;20569;-57
2021/10/12 05:02:25;;;;;;;28.58;14.60;;;;;;;11.25;89.41;98314.47;4992552;28;20644;-57
2021/10/12 05:04:50;;;;;;;30.48;15.30;;;;;;;11.37;89.03;98311.34;4992430;28;20585;-57
2021/10/12 05:07:15;;;;;;;35.78;16.77;;;;;;;11.26;88.33;98310.09;4989316;28;20050;-56
2021/10/12 05:09:41;;;;;;;33.13;16.10;;;;;;;11.35;86.79;98315.78;4993182;28;20026;-58
2021/10/12 05:12:06;;;;;;;30.08;14.77;;;;;;;11.23;89.23;98303.22;4990605;28;20096;-57
2021/10/12 05:14:34;;;;;;;36.17;16.92;;;;;;;10.96;87.97;98298.16;4990074;28;20038;-56
2021/10/12 05:17:02;;;;;;;35.60;16.17;;;;;;;10.88;89.68;98301.94;4992311;28;20068;-57
2021/10/12 05:19:27;;;;;;;35.72;17.33;;;;;;;11.27;86.88;98302.19;4990952;28;20021;-57
2021/10/12 05:21:52;;;;;;;38.30;16.17;;;;;;;11.32;87.02;98300.25;4990719;28;20085;-57
2021/10/12 05:24:18;;;;;;;33.83;17.02;;;;;;;10.92;87.53;98296.56;4991955;28;20026;-56
2021/10/12 05:26:43;;;;;;;37.22;16.33;;;;;;;11.09;90.50;98305.53;4989844;28;20053;-56
2021/10/12 05:29:12;;;;;;;38.88;16.58;;;;;;;11.18;88.73;98300.78;4992703;28;20079;-57
2021/10/12 05:31:40;;;;;;;35.00;16.40;;;;;;;10.98;88.53;98298.09;4989814;28;20042;-58
2021/10/12 05:34:06;;;;;;;37.58;16.63;;;;;;;10.93;90.06;98300.03;4990690;28;20030;-58
2021/10/12 05:36:35;;;;;;;36.15;15.93;;;;;;;11.24;86.91;98294.47;4989068;28;20038;-56
2021/10/12 05:39:00;;;;;;;32.58;15.90;;;;;;;11.03;90.44;98306.59;4991991;28;20499;-57
2021/10/12 05:41:26;;;;;;;30.08;11.40;;;;;;;11.28;90.98;98290.81;4991208;28;20057;-56
2021/10/12 05:43:52;;;;;;;37.80;17.17;;;;;;;10.97;90.53;98296.38;4993720;28;20032;-58
2021/10/12 05:46:18;;;;;;;33.42;16.27;;;;;;;10.94;88.88;98297.34;4993125;28;20486;-56
2021/10/12 05:48:44;;;;;;;36.60;16.38;;;;;;;11.07;87.95;98295.13;4987571;28;20137;-56
2021/10/12 05:51:11;;;;;;;36.90;16.83;;;;;;;10.97;88.74;98291.16;4994721;28;21018;-58
2021/10/12 05:53:45;;;;;;;38.28;17.98;;;;;;;10.68;91.04;98297.47;4991318;28;20680;-58
2021/10/12 05:58:51;;;;;;;36.25;16.70;;;;;;;11.06;90.51;98308.25;4992752;28;20116;-57
2021/10/12 06:01:19;;;;;;;38.60;17.10;;;;;;;10.78;90.54;98301.44;4992749;28;20117;-59
2021/10/12 06:03:44;;;;;;;39.10;17.50;;;;;;;10.63;91.36;98299.41;4991801;28;20041;-60
2021/10/12 06:06:14;;;;;;;41.17;18.08;;;;;;;10.44;93.81;98302.69;4991023;28;20041;-58
2021/10/12 06:08:43;;;;;;;45.90;18.95;;;;;;;10.64;92.26;98303.69;4993251;28;20133;-59
2021/10/12 06:11:09;;;;;;;44.28;18.88;;;;;;;10.56;92.93;98304.84;4990840;28;20125;-60
2021/10/12 06:13:38;;;;;;;46.70;18.58;;;;;;;10.66;94.08;98307.97;4990659;28;20018;-59
2021/10/12 06:16:04;;;;;;;43.28;19.00;;;;;;;10.88;92.73;98302.81;4991693;28;20132;-61
2021/10/12 06:18:29;;;;;;;45.22;19.55;;;;;;;10.75;91.76;98301.56;4988714;28;20102;-59
2021/10/12 06:20:55;;;;;;;45.55;18.58;;;;;;;10.67;93.13;98301.84;4990326;28;20507;-59
2021/10/12 06:23:22;;;;;;;46.75;18.65;;;;;;;10.65;93.77;98305.41;4990397;28;20032;-60
2021/10/12 06:25:48;;;;;;;42.05;19.10;;;;;;;10.98;92.41;98298.94;4992333;28;20518;-59
2021/10/12 06:28:15;;;;;;;43.38;18.25;;;;;;;10.59;92.02;98296.91;4993227;28;20080;-60
2021/10/12 06:30:45;;;;;;;45.03;18.45;;;;;;;10.54;94.63;98298.81;4990545;28;20054;-60
2021/10/12 06:33:11;;;;;;;35.72;16.77;;;;;;;10.55;95.76;98300.53;4992287;28;20026;-62
2021/10/12 06:35:37;;;;;;;43.72;18.38;;;;;;;10.88;92.51;98304.56;4991908;28;20498;-60
2021/10/12 06:38:03;;;;;;;49.35;18.13;;;;;;;11.08;92.22;98303.81;4989766;28;20033;-59
2021/10/12 06:40:30;;;;;;;42.78;18.67;;;;;;;10.78;93.05;98307.50;4990053;28;20046;-62
2021/10/12 06:42:56;;;;;;;40.47;17.15;;;;;;;10.83;92.22;98309.97;4987819;28;20065;-59
2021/10/12 06:45:24;;;;;;;38.55;17.13;;;;;;;10.86;94.27;98315.03;4990662;28;20051;-59
2021/10/12 06:47:49;;;;;;;41.75;17.88;;;;;;;10.53;94.25;98304.09;4987447;28;20041;-58
2021/10/12 06:50:17;;;;;;;40.00;18.45;;;;;;;10.74;94.58;98299.88;4988661;28;20030;-58
2021/10/12 06:52:43;;;;;;;39.53;16.83;;;;;;;10.86;96.75;98299.38;4997440;28;20038;-59
2021/10/12 06:55:09;;;;;;;40.38;17.60;;;;;;;11.23;91.62;98300.63;4985567;28;20089;-61
2021/10/12 06:57:36;;;;;;;37.13;17.52;;;;;;;11.23;91.79;98303.22;4989286;28;20049;-60
2021/10/12 07:00:04;;;;;;;35.88;16.52;;;;;;;11.05;93.97;98306.56;4988191;28;20746;-59
2021/10/12 07:02:29;;;;;;;34.17;15.32;;;;;;;11.27;93.67;98309.19;4990299;28;20050;-59
2021/10/12 07:04:54;;;;;;;38.35;16.38;;;;;;;11.10;93.89;98301.97;4991549;28;20030;-59
2021/10/12 07:07:20;;;;;;;36.17;15.57;;;;;;;11.06;93.96;98295.19;4988111;28;20084;-59
2021/10/12 07:09:45;;;;;;;27.77;14.43;;;;;;;11.27;92.19;98294.38;4987780;28;20054;-60
2021/10/12 07:12:10;;;;;;;32.22;15.20;;;;;;;11.20;92.94;98287.69;4989843;28;20089;-59
2021/10/12 07:14:36;;;;;;;30.10;15.30;;;;;;;11.38;90.98;98286.13;4991006;28;20407;-59
2021/10/12 07:17:02;;;;;;;37.22;15.52;;;;;;;11.29;90.94;98287.31;4992387;28;20041;-61
2021/10/12 07:19:27;;;;;;;25.77;14.23;;;;;;;11.25;93.66;98295.31;4991949;28;20037;-60
2021/10/12 07:21:56;;;;;;;31.13;14.48;;;;;;;11.43;91.35;98294.59;4990839;28;20045;-59
2021/10/12 07:24:22;;;;;;;30.98;14.45;;;;;;;11.35;91.14;98291.44;4996014;28;20486;-59
2021/10/12 07:26:54;;;;;;;27.42;13.20;;;;;;;11.35;90.52;98289.69;4992768;28;20562;-59
2021/10/12 07:29:20;;;;;;;27.25;13.07;;;;;;;11.12;91.71;98300.16;4991449;28;20040;-59
2021/10/12 07:31:45;;;;;;;30.17;12.95;;;;;;;11.36;90.05;98304.44;4991826;28;20029;-59
2021/10/12 07:34:11;;;;;;;24.27;12.82;;;;;;;11.28;90.23;98301.28;4992240;28;20041;-59
2021/10/12 07:36:37;;;;;;;24.73;13.15;;;;;;;11.44;89.16;98301.53;4989862;28;20168;-59
2021/10/12 07:39:04;;;;;;;29.25;13.45;;;;;;;11.31;89.23;98293.31;4992384;28;20096;-59
2021/10/12 07:41:30;;;;;;;25.30;13.15;;;;;;;11.07;91.84;98297.75;4992233;28;20030;-59
2021/10/12 07:43:56;;;;;;;22.77;12.45;;;;;;;11.17;90.77;98280.81;4991697;28;20040;-58
2021/10/12 07:46:21;;;;;;;24.33;11.30;;;;;;;10.96;91.62;98279.88;4991118;28;20189;-58
2021/10/12 07:48:46;;;;;;;21.30;11.20;;;;;;;11.51;89.63;98286.47;4990853;28;20498;-58
2021/10/12 07:51:12;;;;;;;20.67;11.07;;;;;;;11.76;89.72;98284.56;4994258;28;20049;-59
2021/10/12 07:53:39;;;;;;;17.02;10.55;;;;;;;11.90;88.55;98281.38;4993504;28;20051;-60
2021/10/12 07:56:08;;;;;;;22.63;10.65;;;;;;;11.93;88.88;98278.66;4991433;28;20049;-60
2021/10/12 07:58:33;;;;;;;19.35;10.63;;;;;;;12.12;86.03;98272.66;4992946;28;20076;-59
2021/10/12 08:00:59;;;;;;;19.63;10.57;;;;;;;12.20;86.71;98269.69;4992969;28;20038;-60
2021/10/12 08:03:24;;;;;;;17.52;9.73;;;;;;;11.89;85.54;98271.84;4993902;28;20033;-61
2021/10/12 08:05:53;;;;;;;17.05;9.15;;;;;;;11.71;86.17;98273.44;4995349;28;20054;-62
2021/10/12 08:08:18;;;;;;;18.63;9.93;;;;;;;11.77;87.07;98265.34;4995020;28;20034;-62
2021/10/12 08:10:44;;;;;;;14.80;9.07;;;;;;;12.10;85.20;98277.09;4992586;28;20080;-60
2021/10/12 08:13:16;;;;;;;17.20;9.65;;;;;;;12.11;85.04;98269.19;4991576;28;20030;-60
2021/10/12 08:15:46;;;;;;;16.40;8.95;;;;;;;12.30;84.04;98271.00;4993040;28;20069;-62
2021/10/12 08:18:14;;;;;;;19.95;8.50;;;;;;;12.90;81.11;98263.94;4993978;28;20033;-62
2021/10/12 08:20:45;;;;;;;16.20;8.77;;;;;;;12.51;82.07;98263.97;4991044;28;20041;-61
2021/10/12 08:23:11;;;;;;;17.15;9.23;;;;;;;12.90;80.50;98263.94;4993759;28;20030;-62
2021/10/12 08:25:36;;;;;;;10.68;6.88;;;;;;;12.81;83.23;98256.50;4992871;28;20092;-61
2021/10/12 08:28:01;;;;;;;16.02;7.93;;;;;;;12.84;80.48;98256.34;4993479;28;20037;-62
2021/10/12 08:30:27;;;;;;;16.40;7.95;;;;;;;13.38;78.75;98250.38;4992527;28;20040;-63
2021/10/12 08:32:52;;;;;;;13.85;7.72;;;;;;;13.33;78.07;98257.63;4991169;28;20022;-62
2021/10/12 08:35:18;;;;;;;12.57;7.85;;;;;;;13.45;79.36;98251.78;4991862;28;20041;-61
2021/10/12 08:37:43;;;;;;;11.43;6.65;;;;;;;13.99;77.55;98236.00;4994273;28;20033;-62
2021/10/12 08:40:14;;;;;;;15.13;7.10;;;;;;;13.47;77.72;98239.44;4992576;28;20042;-60
2021/10/12 08:42:51;;;;;;;12.18;6.75;;;;;;;13.71;77.29;98236.53;5001213;28;20065;-62
2021/10/12 08:45:20;;;;;;;10.30;6.00;;;;;;;14.00;76.31;98232.44;4992918;28;20084;-59
2021/10/12 08:47:47;;;;;;;10.50;6.35;;;;;;;13.86;74.64;98230.56;4991838;28;20437;-61
2021/10/12 08:50:16;;;;;;;11.10;5.68;;;;;;;15.15;70.97;98233.38;4992949;28;20053;-61
2021/10/12 08:52:45;;;;;;;12.25;6.20;;;;;;;15.30;71.44;98221.97;4993641;28;20735;-61
2021/10/12 08:55:11;;;;;;;10.70;5.65;;;;;;;15.93;67.15;98218.34;4993199;28;20349;-60
2021/10/12 08:57:39;;;;;;;7.65;4.65;;;;;;;15.93;67.51;98222.78;4992243;28;20026;-61
2021/10/12 09:00:19;;;;;;;8.15;4.88;;;;;;;15.42;67.60;98225.72;4992268;28;20026;-60
2021/10/12 09:06:03;;;;;;;6.03;3.97;;;;;;;15.43;67.62;98215.09;4993876;28;20065;-59
2021/10/12 09:08:39;;;;;;;6.28;4.10;;;;;;;15.95;69.36;98208.63;4993884;28;20026;-59
2021/10/12 09:11:25;;;;;;;8.43;3.65;;;;;;;15.03;68.75;98212.09;4993000;28;20621;-59
2021/10/12 09:14:02;;;;;;;7.38;3.33;;;;;;;14.87;72.15;98213.88;4990098;28;20087;-60
2021/10/12 09:16:33;;;;;;;6.03;3.30;;;;;;;14.84;69.12;98209.63;4992627;28;20399;-61
2021/10/12 09:19:01;;;;;;;5.45;3.38;;;;;;;15.35;68.09;98198.09;4992199;28;20088;-62
2021/10/12 09:21:57;;;;;;;5.60;3.22;;;;;;;15.47;68.12;98196.50;4990544;28;20616;-59
2021/10/12 09:24:27;;;;;;;6.85;3.03;;;;;;;15.11;67.08;98201.16;4985069;28;20125;-59
2021/10/12 09:26:55;;;;;;;5.35;2.90;;;;;;;14.94;70.08;98196.88;4991357;28;20087;-61
2021/10/12 09:29:28;;;;;;;4.38;2.53;;;;;;;15.00;69.87;98193.03;4994551;28;20043;-61
2021/10/12 09:31:55;;;;;;;6.82;2.88;;;;;;;14.96;69.64;98188.88;4990928;28;20496;-61
2021/10/12 09:34:23;;;;;;;5.63;2.40;;;;;;;14.41;68.89;98174.31;4992273;28;20105;-60
2021/10/12 09:36:50;;;;;;;5.25;2.60;;;;;;;14.66;68.03;98181.75;4990620;28;20092;-60
2021/10/12 09:39:30;;;;;;;5.57;2.60;;;;;;;15.36;66.05;98173.47;4993649;28;20037;-61
2021/10/12 09:41:57;;;;;;;4.47;2.55;;;;;;;14.55;66.58;98170.97;4992422;28;20037;-61
2021/10/12 09:44:23;;;;;;;6.05;2.63;;;;;;;14.07;68.91;98166.47;4992745;28;20040;-62
2021/10/12 09:46:50;;;;;;;4.68;2.40;;;;;;;14.21;69.65;98165.78;4990329;28;20045;-62
2021/10/12 09:49:27;;;;;;;5.45;2.70;;;;;;;14.05;70.33;98157.84;4991637;28;20456;-60
2021/10/12 09:51:55;;;;;;;5.68;2.65;;;;;;;14.10;69.29;98148.88;4990069;28;20033;-60
2021/10/12 09:54:26;;;;;;;4.90;2.60;;;;;;;14.43;68.91;98147.09;4991259;28;20523;-61
2021/10/12 09:56:52;;;;;;;5.82;3.10;;;;;;;14.59;69.25;98151.53;4991966;28;20683;-61
2021/10/12 09:59:17;;;;;;;5.43;2.90;;;;;;;14.35;69.60;98144.03;4992202;28;20072;-60
2021/10/12 10:01:48;;;;;;;5.88;2.83;;;;;;;14.03;69.48;98143.13;4989120;28;20407;-59
2021/10/12 10:04:20;;;;;;;6.40;2.78;;;;;;;14.70;68.33;98141.28;4989561;28;20068;-63
2021/10/12 10:06:50;;;;;;;5.68;2.63;;;;;;;14.06;71.02;98137.69;4990355;28;20045;-61
2021/10/12 10:09:19;;;;;;;5.80;2.38;;;;;;;14.05;69.31;98136.03;4988951;28;20109;-59
2021/10/12 10:11:45;;;;;;;4.20;2.50;;;;;;;14.64;65.79;98145.09;4990695;28;20045;-61
2021/10/12 10:14:15;;;;;;;5.05;2.35;;;;;;;14.44;66.90;98143.53;4992529;28;20029;-60
2021/10/12 10:16:43;;;;;;;3.78;2.20;;;;;;;14.48;68.17;98138.13;4991300;28;20070;-62
2021/10/12 10:19:24;;;;;;;5.65;2.60;;;;;;;14.19;68.08;98127.41;4993008;28;20034;-60
2021/10/12 10:21:50;;;;;;;3.88;2.35;;;;;;;13.86;67.39;98125.66;4990564;28;20052;-60
2021/10/12 10:24:43;;;;;;;4.22;2.40;;;;;;;14.05;67.87;98115.88;4992660;28;20034;-62
2021/10/12 10:27:29;;;;;;;4.68;2.33;;;;;;;14.40;66.73;98121.00;4991370;28;20058;-62
2021/10/12 10:30:24;;;;;;;5.00;2.38;;;;;;;14.63;66.05;98113.66;4990795;28;20443;-60
2021/10/12 10:33:00;;;;;;;8.90;2.47;;;;;;;14.77;71.63;98113.75;4989484;28;20046;-60
2021/10/12 10:35:41;;;;;;;3.28;2.30;;;;;;;14.34;68.28;98110.84;4991267;28;20038;-59
2021/10/12 10:38:25;;;;;;;4.32;2.50;;;;;;;14.18;67.61;98108.22;4991772;28;20925;-61
2021/10/12 10:41:13;;;;;;;4.35;2.50;;;;;;;13.79;69.13;98104.16;4989821;28;20069;-60
2021/10/12 10:43:56;;;;;;;4.18;2.25;;;;;;;14.35;66.60;98103.81;4986972;28;20770;-62
2021/10/12 10:46:34;;;;;;;7.63;2.58;;;;;;;14.14;68.94;98097.97;4988068;28;20042;-61
2021/10/12 10:49:23;;;;;;;4.07;1.73;;;;;;;13.42;67.28;98094.75;4996051;28;20030;-61
2021/10/12 10:52:04;;;;;;;4.65;2.30;;;;;;;13.84;67.62;98098.66;4993658;28;20041;-60
2021/10/12 10:54:38;;;;;;;4.15;2.22;;;;;;;13.86;67.07;98086.34;4997348;28;20529;-61
2021/10/12 10:57:10;;;;;;;7.70;2.50;;;;;;;13.65;66.39;98086.50;4999003;28;20065;-60
2021/10/12 10:59:35;;;;;;;5.53;2.45;;;;;;;13.85;66.89;98082.00;4994391;28;20638;-61
2021/10/12 11:02:01;;;;;;;3.65;2.22;;;;;;;14.09;67.33;98079.84;4995605;28;20497;-62
2021/10/12 11:04:46;;;;;;;4.38;2.40;;;;;;;13.63;67.59;98072.66;4997458;28;20062;-63
2021/10/12 11:07:20;;;;;;;3.92;2.55;;;;;;;13.96;66.97;98070.97;4996930;28;20752;-61
2021/10/12 11:09:46;;;;;;;5.40;2.50;;;;;;;14.54;64.27;98069.53;4998466;28;20036;-60
2021/10/12 11:12:25;;;;;;;5.50;2.63;;;;;;;14.23;66.30;98061.59;4997718;28;20042;-61
2021/10/12 11:14:53;;;;;;;4.82;2.50;;;;;;;14.13;67.21;98062.19;4998372;28;20030;-61
2021/10/12 11:17:18;;;;;;;4.28;2.70;;;;;;;14.15;67.07;98057.69;4996963;28;20042;-59
2021/10/12 11:19:57;;;;;;;5.28;2.53;;;;;;;13.93;67.86;98050.13;4995090;28;20042;-62
2021/10/12 11:22:24;;;;;;;5.03;2.90;;;;;;;14.31;69.41;98045.41;4996095;28;20042;-61
2021/10/12 11:24:49;;;;;;;5.85;3.00;;;;;;;14.07;66.27;98045.00;4996893;28;20026;-61
2021/10/12 11:27:15;;;;;;;5.15;2.80;;;;;;;14.11;67.46;98040.44;4996024;28;20038;-60
2021/10/12 11:29:41;;;;;;;5.07;2.58;;;;;;;13.77;67.01;98037.03;4994037;28;20030;-62